Time;durP1;ratioP1;P1;durP2;ratioP2;P2;SDS_P1;SDS_P2;PMS_P1;PMS_P2;Temp;Humidity;BMP_temperature;BMP_pressure;BME280_temperature;BME280_humidity;BME280_pressure;Samples;Min_cycle;Max_cycle;Signal;HPM_P1;HPM_P2
2022/05/15 00:00:41;;;;;;;13.02;7.00;;;;;;;;;;5009263;28;20062;-67
2022/05/15 00:03:18;;;;;;;12.93;6.95;;;;;;;;;;5011526;28;20050;-67
2022/05/15 00:05:55;;;;;;;10.55;5.53;;;;;;;;;;5012201;28;20046;-67
2022/05/15 00:08:29;;;;;;;10.85;5.80;;;;;;;;;;5047430;28;20055;-67
2022/05/15 00:11:02;;;;;;;10.77;5.82;;;;;;;;;;5035501;28;20057;-66
2022/05/15 00:13:33;;;;;;;9.45;5.47;;;;;;;;;;5051764;28;20056;-65
2022/05/15 00:16:03;;;;;;;10.93;6.38;;;;;;;;;;5034981;28;20148;-65
2022/05/15 00:18:35;;;;;;;11.52;5.53;;;;;;;;;;5031203;28;20057;-66
2022/05/15 00:21:07;;;;;;;10.75;6.38;;;;;;;;;;4982582;28;20064;-65
2022/05/15 00:23:38;;;;;;;13.38;6.25;;;;;;;;;;4993161;28;20135;-65
2022/05/15 00:26:09;;;;;;;10.90;5.57;;;;;;;;;;5011661;28;20062;-65
2022/05/15 00:28:40;;;;;;;11.75;6.22;;;;;;;;;;5011305;28;20053;-65
2022/05/15 00:31:11;;;;;;;14.32;6.22;;;;;;;;;;5027846;28;20057;-65
2022/05/15 00:33:44;;;;;;;13.55;6.50;;;;;;;;;;4949789;28;20056;-65
2022/05/15 00:36:14;;;;;;;12.60;6.60;;;;;;;;;;4975488;28;20070;-65
2022/05/15 00:38:45;;;;;;;14.23;6.57;;;;;;;;;;4933770;28;20050;-65
2022/05/15 00:41:16;;;;;;;11.77;6.45;;;;;;;;;;4973223;28;20042;-65
2022/05/15 00:43:48;;;;;;;12.23;6.05;;;;;;;;;;4952220;29;20120;-65
2022/05/15 00:46:29;;;;;;;12.43;6.80;;;;;;;;;;4961028;28;20055;-65
2022/05/15 00:49:03;;;;;;;11.70;6.35;;;;;;;;;;4939199;28;20419;-65
2022/05/15 00:51:47;;;;;;;12.38;6.03;;;;;;;;;;4972104;28;20074;-65
2022/05/15 00:54:35;;;;;;;9.55;5.82;;;;;;;;;;4908751;28;20090;-65
2022/05/15 00:57:20;;;;;;;10.95;6.07;;;;;;;;;;5005116;28;20065;-65
2022/05/15 00:59:58;;;;;;;11.10;6.00;;;;;;;;;;4991266;28;20422;-65
2022/05/15 01:02:36;;;;;;;8.45;5.22;;;;;;;;;;4989927;28;20054;-65
2022/05/15 01:05:08;;;;;;;12.38;6.53;;;;;;;;;;4991033;28;20099;-65
2022/05/15 01:07:39;;;;;;;12.98;6.72;;;;;;;;;;5010785;28;20057;-65
2022/05/15 01:10:11;;;;;;;13.57;6.38;;;;;;;;;;5026767;28;20041;-65
2022/05/15 01:12:44;;;;;;;13.52;6.65;;;;;;;;;;5026969;28;20204;-65
2022/05/15 01:15:22;;;;;;;9.95;5.63;;;;;;;;;;5030118;28;20050;-65
2022/05/15 01:17:55;;;;;;;9.98;5.35;;;;;;;;;;5030025;28;20068;-65
2022/05/15 01:20:31;;;;;;;11.90;5.85;;;;;;;;;;4988439;28;20054;-65
2022/05/15 01:23:02;;;;;;;10.75;5.93;;;;;;;;;;4971732;28;20099;-66
2022/05/15 01:25:37;;;;;;;11.50;5.93;;;;;;;;;;4971459;28;20406;-65
2022/05/15 01:28:13;;;;;;;9.60;5.43;;;;;;;;;;4971491;28;20058;-66
2022/05/15 01:30:50;;;;;;;10.15;5.93;;;;;;;;;;4924174;28;20550;-65
2022/05/15 01:33:21;;;;;;;11.73;5.28;;;;;;;;;;4958206;28;20050;-65
2022/05/15 01:35:52;;;;;;;9.93;5.05;;;;;;;;;;4990356;28;20050;-65
2022/05/15 01:38:24;;;;;;;9.80;5.20;;;;;;;;;;5007950;28;20050;-66
2022/05/15 01:40:54;;;;;;;11.57;5.95;;;;;;;;;;5010293;28;20064;-65
2022/05/15 01:43:25;;;;;;;13.10;5.95;;;;;;;;;;4957893;28;20047;-65
2022/05/15 01:45:56;;;;;;;9.88;5.43;;;;;;;;;;4958351;28;20058;-66
2022/05/15 01:48:30;;;;;;;11.48;5.53;;;;;;;;;;4990111;28;20502;-66
2022/05/15 01:51:01;;;;;;;12.93;6.30;;;;;;;;;;4974380;28;20054;-66
2022/05/15 01:53:32;;;;;;;17.08;5.72;;;;;;;;;;4975714;28;20062;-66
2022/05/15 01:56:04;;;;;;;12.88;6.72;;;;;;;;;;4970756;28;20051;-65
2022/05/15 01:58:35;;;;;;;;;;;;;;;;;;4949101;28;20043;-65
2022/05/15 02:01:06;;;;;;;14.70;6.20;;;;;;;;;;4989553;28;19922;-65
2022/05/15 02:03:37;;;;;;;12.68;6.38;;;;;;;;;;4989667;28;20137;-66
2022/05/15 02:06:09;;;;;;;13.23;6.43;;;;;;;;;;4951326;28;20565;-66
2022/05/15 02:08:40;;;;;;;14.63;7.10;;;;;;;;;;4900319;29;20061;-66
2022/05/15 02:11:11;;;;;;;13.60;7.20;;;;;;;;;;4916202;29;20068;-65
2022/05/15 02:13:43;;;;;;;11.23;6.80;;;;;;;;;;4931594;29;20059;-66
2022/05/15 02:16:13;;;;;;;14.32;7.13;;;;;;;;;;4916696;29;20055;-66
2022/05/15 02:18:44;;;;;;;13.35;7.20;;;;;;;;;;4897129;29;20040;-66
2022/05/15 02:21:16;;;;;;;14.18;7.13;;;;;;;;;;4931651;29;20059;-66
2022/05/15 02:23:47;;;;;;;14.20;7.18;;;;;;;;;;4931101;29;20059;-65
2022/05/15 02:26:17;;;;;;;16.05;8.23;;;;;;;;;;4900058;29;20059;-65
2022/05/15 02:28:48;;;;;;;13.35;7.20;;;;;;;;;;4912447;29;20138;-65
2022/05/15 02:31:19;;;;;;;14.90;6.93;;;;;;;;;;4912297;29;20060;-66
2022/05/15 02:33:50;;;;;;;13.00;6.72;;;;;;;;;;4881142;29;20405;-66
2022/05/15 02:36:21;;;;;;;15.65;7.35;;;;;;;;;;4852458;29;20510;-65
2022/05/15 02:38:51;;;;;;;11.30;6.07;;;;;;;;;;4893298;29;20059;-66
2022/05/15 02:41:23;;;;;;;14.88;6.57;;;;;;;;;;4877851;29;20060;-65
2022/05/15 02:43:54;;;;;;;13.68;7.00;;;;;;;;;;4912229;29;20060;-67
2022/05/15 02:46:25;;;;;;;11.60;6.45;;;;;;;;;;4922556;29;20059;-66
2022/05/15 02:51:45;;;;;;;14.48;6.47;;;;;;;;;;4925728;28;20060;-66
2022/05/15 02:54:16;;;;;;;11.38;6.30;;;;;;;;;;4911715;29;20048;-66
2022/05/15 02:56:47;;;;;;;14.27;6.68;;;;;;;;;;4924290;29;20047;-67
2022/05/15 02:59:17;;;;;;;13.82;7.07;;;;;;;;;;4931083;29;20063;-67
2022/05/15 03:01:48;;;;;;;17.23;8.23;;;;;;;;;;4914778;29;20051;-67
2022/05/15 03:04:19;;;;;;;17.55;8.57;;;;;;;;;;4895809;29;20056;-67
2022/05/15 03:06:50;;;;;;;17.80;8.45;;;;;;;;;;4924269;29;20136;-66
2022/05/15 03:09:21;;;;;;;17.15;8.73;;;;;;;;;;4904892;29;20048;-66
2022/05/15 03:11:52;;;;;;;18.08;8.50;;;;;;;;;;4905265;29;20060;-66
2022/05/15 03:14:23;;;;;;;17.67;8.30;;;;;;;;;;4911921;29;20505;-67
2022/05/15 03:16:54;;;;;;;17.42;8.85;;;;;;;;;;4888560;29;20061;-66
2022/05/15 03:19:24;;;;;;;19.27;9.52;;;;;;;;;;4874704;29;20529;-66
2022/05/15 03:21:55;;;;;;;18.30;8.88;;;;;;;;;;4886663;29;20060;-66
2022/05/15 03:24:26;;;;;;;19.27;9.32;;;;;;;;;;4893590;29;20060;-66
2022/05/15 03:26:58;;;;;;;18.95;9.07;;;;;;;;;;4917731;29;20435;-66
2022/05/15 03:29:29;;;;;;;18.38;9.02;;;;;;;;;;4931082;29;20067;-66
2022/05/15 03:32:00;;;;;;;19.77;9.45;;;;;;;;;;4941321;29;20059;-66
2022/05/15 03:34:31;;;;;;;18.60;8.77;;;;;;;;;;4951873;28;20087;-66
2022/05/15 03:37:02;;;;;;;18.73;8.82;;;;;;;;;;4973579;28;20066;-66
2022/05/15 03:39:32;;;;;;;20.15;9.35;;;;;;;;;;4973121;28;20047;-65
2022/05/15 03:42:04;;;;;;;20.42;10.00;;;;;;;;;;4951718;28;20119;-66
2022/05/15 03:44:37;;;;;;;21.42;9.50;;;;;;;;;;4976407;28;20062;-66
2022/05/15 03:47:09;;;;;;;20.55;8.80;;;;;;;;;;5014716;28;20057;-66
2022/05/15 03:49:39;;;;;;;19.77;9.73;;;;;;;;;;5030328;28;20052;-66
2022/05/15 03:52:11;;;;;;;18.77;9.50;;;;;;;;;;5072085;28;20048;-66
2022/05/15 03:54:42;;;;;;;17.42;8.93;;;;;;;;;;5055163;28;20049;-66
2022/05/15 03:57:13;;;;;;;20.85;9.55;;;;;;;;;;5071955;28;20059;-66
2022/05/15 03:59:43;;;;;;;19.52;9.40;;;;;;;;;;5021686;28;20505;-66
2022/05/15 04:02:14;;;;;;;22.25;8.98;;;;;;;;;;5035079;28;20409;-67
2022/05/15 04:04:45;;;;;;;20.92;9.45;;;;;;;;;;5011591;28;20066;-67
2022/05/15 04:07:15;;;;;;;19.52;9.35;;;;;;;;;;5011736;28;20062;-68
2022/05/15 04:09:46;;;;;;;17.52;8.70;;;;;;;;;;5011922;28;20073;-68
2022/05/15 04:12:18;;;;;;;19.42;8.50;;;;;;;;;;4999131;28;20095;-67
2022/05/15 04:14:49;;;;;;;17.05;8.45;;;;;;;;;;4953069;29;20051;-69
2022/05/15 04:17:19;;;;;;;15.48;7.50;;;;;;;;;;4953396;29;20055;-68
2022/05/15 04:19:50;;;;;;;17.13;8.05;;;;;;;;;;4921559;29;20052;-67
2022/05/15 04:22:21;;;;;;;21.52;9.27;;;;;;;;;;4953495;29;20063;-66
2022/05/15 04:24:51;;;;;;;22.02;10.10;;;;;;;;;;4901786;29;20795;-66
2022/05/15 04:27:24;;;;;;;26.42;11.23;;;;;;;;;;4888453;29;20099;-66
2022/05/15 04:29:55;;;;;;;28.42;10.80;;;;;;;;;;4933856;29;20062;-66
2022/05/15 04:32:25;;;;;;;21.95;9.82;;;;;;;;;;4886851;29;20083;-66
2022/05/15 04:34:57;;;;;;;28.77;11.40;;;;;;;;;;4934099;29;20075;-66
2022/05/15 04:37:27;;;;;;;27.92;11.95;;;;;;;;;;4886882;29;20059;-66
2022/05/15 04:39:58;;;;;;;26.70;11.25;;;;;;;;;;4933675;29;20056;-66
2022/05/15 04:42:30;;;;;;;27.00;10.32;;;;;;;;;;4924522;29;20056;-66
2022/05/15 04:45:02;;;;;;;22.63;10.18;;;;;;;;;;4895615;29;20057;-66
2022/05/15 04:47:32;;;;;;;22.30;9.57;;;;;;;;;;4895104;29;20060;-66
2022/05/15 04:50:04;;;;;;;20.48;8.98;;;;;;;;;;4890314;29;20402;-66
2022/05/15 04:52:35;;;;;;;20.30;9.50;;;;;;;;;;4928362;29;20059;-66
2022/05/15 04:55:07;;;;;;;23.60;9.90;;;;;;;;;;4943439;28;20054;-66
2022/05/15 04:57:37;;;;;;;22.67;10.05;;;;;;;;;;4975589;28;20058;-66
2022/05/15 05:00:13;;;;;;;23.00;9.77;;;;;;;;;;4991220;28;20438;-66
2022/05/15 05:02:45;;;;;;;23.80;10.32;;;;;;;;;;5015035;28;20065;-66
2022/05/15 05:05:17;;;;;;;23.05;10.25;;;;;;;;;;5030923;28;20049;-66
2022/05/15 05:07:47;;;;;;;25.05;9.98;;;;;;;;;;4981859;28;20056;-66
2022/05/15 05:10:18;;;;;;;24.92;10.45;;;;;;;;;;5030896;28;20058;-66
2022/05/15 05:12:49;;;;;;;29.58;10.98;;;;;;;;;;5030973;28;20060;-66
2022/05/15 05:15:21;;;;;;;29.38;11.38;;;;;;;;;;4981349;28;20190;-65
2022/05/15 05:17:51;;;;;;;31.92;11.55;;;;;;;;;;4981709;28;20058;-66
2022/05/15 05:20:22;;;;;;;29.75;11.70;;;;;;;;;;5042274;28;20053;-66
2022/05/15 05:22:53;;;;;;;30.58;11.10;;;;;;;;;;5073609;28;20511;-66
2022/05/15 05:25:23;;;;;;;28.58;11.68;;;;;;;;;;4997036;28;20121;-66
2022/05/15 05:27:54;;;;;;;28.25;11.25;;;;;;;;;;4997305;28;20429;-66
2022/05/15 05:30:26;;;;;;;33.00;11.20;;;;;;;;;;5030203;28;20064;-66
2022/05/15 05:32:57;;;;;;;31.67;11.75;;;;;;;;;;5010170;28;20409;-66
2022/05/15 05:35:28;;;;;;;27.33;10.38;;;;;;;;;;5010295;28;20406;-66
2022/05/15 05:37:59;;;;;;;29.90;10.73;;;;;;;;;;5010215;28;20449;-66
2022/05/15 05:40:29;;;;;;;24.50;9.95;;;;;;;;;;5010236;28;20062;-66
2022/05/15 05:43:00;;;;;;;23.05;9.55;;;;;;;;;;4990020;28;20053;-66
2022/05/15 05:45:32;;;;;;;22.02;10.93;;;;;;;;;;4942300;28;20066;-66
2022/05/15 05:48:03;;;;;;;25.40;10.05;;;;;;;;;;4916926;29;20071;-66
2022/05/15 05:50:34;;;;;;;29.23;10.48;;;;;;;;;;4932650;29;20063;-66
2022/05/15 05:53:05;;;;;;;26.25;10.55;;;;;;;;;;4900781;29;20052;-66
2022/05/15 05:55:37;;;;;;;26.55;10.57;;;;;;;;;;4881801;29;20060;-66
2022/05/15 05:58:07;;;;;;;28.42;10.00;;;;;;;;;;4894560;29;20068;-66
2022/05/15 06:00:38;;;;;;;22.85;9.65;;;;;;;;;;4904637;29;20505;-66
2022/05/15 06:05:58;;;;;;;22.80;9.95;;;;;;;;;;4932023;29;20054;-66
2022/05/15 06:08:30;;;;;;;27.20;10.40;;;;;;;;;;4932296;29;20164;-66
2022/05/15 06:11:00;;;;;;;23.35;9.63;;;;;;;;;;4913089;28;20062;-66
2022/05/15 06:13:31;;;;;;;26.25;10.48;;;;;;;;;;4935703;29;20055;-66
2022/05/15 06:16:03;;;;;;;30.27;10.57;;;;;;;;;;4950894;28;20058;-67
2022/05/15 06:18:34;;;;;;;22.73;9.13;;;;;;;;;;4931682;29;20071;-66
2022/05/15 06:21:04;;;;;;;24.65;8.98;;;;;;;;;;4958057;28;20050;-66
2022/05/15 06:23:35;;;;;;;25.20;8.57;;;;;;;;;;4970530;28;20460;-66
2022/05/15 06:26:06;;;;;;;28.20;9.90;;;;;;;;;;4970992;28;20054;-66
2022/05/15 06:28:36;;;;;;;23.65;9.63;;;;;;;;;;4973175;28;20061;-66
2022/05/15 06:31:07;;;;;;;18.73;9.20;;;;;;;;;;4989975;28;20061;-66
2022/05/15 06:33:38;;;;;;;18.90;9.02;;;;;;;;;;4990000;28;20059;-66
2022/05/15 06:36:08;;;;;;;16.67;7.80;;;;;;;;;;5016098;28;20441;-66
2022/05/15 06:38:42;;;;;;;17.95;8.35;;;;;;;;;;5029136;28;20057;-66
2022/05/15 06:41:13;;;;;;;18.25;8.05;;;;;;;;;;5029194;28;20041;-66
2022/05/15 06:43:44;;;;;;;17.45;7.70;;;;;;;;;;5019555;28;20050;-66
2022/05/15 06:46:15;;;;;;;15.98;7.55;;;;;;;;;;5029120;28;20046;-66
2022/05/15 06:48:46;;;;;;;16.38;7.80;;;;;;;;;;5028935;28;20505;-66
2022/05/15 06:51:17;;;;;;;15.90;8.02;;;;;;;;;;5008979;28;20046;-66
2022/05/15 06:53:49;;;;;;;17.98;7.43;;;;;;;;;;4992724;28;20080;-66
2022/05/15 06:59:09;;;;;;;16.40;7.68;;;;;;;;;;4989404;28;20094;-66
2022/05/15 07:01:39;;;;;;;17.48;8.40;;;;;;;;;;4989028;28;20667;-66
2022/05/15 07:04:10;;;;;;;17.90;8.02;;;;;;;;;;5035274;28;20049;-66
2022/05/15 07:06:41;;;;;;;20.73;8.18;;;;;;;;;;5048842;28;20053;-66
2022/05/15 07:09:11;;;;;;;20.48;8.25;;;;;;;;;;5047958;28;20064;-66
2022/05/15 07:11:42;;;;;;;17.55;8.70;;;;;;;;;;4999246;28;20045;-66
2022/05/15 07:14:13;;;;;;;19.65;8.75;;;;;;;;;;5048813;28;20056;-66
2022/05/15 07:16:43;;;;;;;20.23;8.70;;;;;;;;;;5048541;28;20049;-66
2022/05/15 07:19:14;;;;;;;20.25;8.50;;;;;;;;;;5048398;28;20147;-65
2022/05/15 07:21:45;;;;;;;23.40;8.02;;;;;;;;;;5061410;28;20065;-66
2022/05/15 07:24:16;;;;;;;20.48;8.50;;;;;;;;;;5034854;28;20063;-66
2022/05/15 07:26:47;;;;;;;21.35;7.85;;;;;;;;;;5068541;28;20060;-65
2022/05/15 07:29:20;;;;;;;21.35;9.00;;;;;;;;;;5072093;28;20127;-66
2022/05/15 07:31:51;;;;;;;22.75;8.05;;;;;;;;;;5055191;28;20447;-65
2022/05/15 07:34:22;;;;;;;20.85;8.07;;;;;;;;;;5088428;28;20566;-66
2022/05/15 07:36:53;;;;;;;19.92;8.63;;;;;;;;;;5088167;28;20063;-66
2022/05/15 07:39:24;;;;;;;21.80;8.32;;;;;;;;;;5088462;28;20047;-65
2022/05/15 07:41:54;;;;;;;19.02;8.10;;;;;;;;;;5062479;28;20538;-65
2022/05/15 07:44:25;;;;;;;18.92;7.57;;;;;;;;;;5055998;28;20059;-66
2022/05/15 07:46:56;;;;;;;23.30;8.70;;;;;;;;;;5090690;28;20043;-65
2022/05/15 07:49:27;;;;;;;22.10;8.38;;;;;;;;;;5090929;28;20098;-66
2022/05/15 07:51:58;;;;;;;20.05;7.90;;;;;;;;;;5090587;28;20043;-66
2022/05/15 07:54:29;;;;;;;21.00;8.80;;;;;;;;;;5090777;28;20036;-66
2022/05/15 07:57:03;;;;;;;25.42;8.57;;;;;;;;;;5071334;28;20090;-66
2022/05/15 07:59:34;;;;;;;24.20;8.60;;;;;;;;;;5072240;28;20063;-66
2022/05/15 08:02:06;;;;;;;18.77;7.80;;;;;;;;;;5071559;28;20052;-65
2022/05/15 08:10:15;;;;;;;20.08;8.10;;;;;;;;;;5088531;28;20411;-65
2022/05/15 08:12:47;;;;;;;24.30;8.88;;;;;;;;;;5087985;28;20044;-65
2022/05/15 08:15:17;;;;;;;23.17;8.27;;;;;;;;;;5050988;28;20041;-66
2022/05/15 08:17:49;;;;;;;23.00;8.00;;;;;;;;;;4978468;28;20049;-67
2022/05/15 08:25:57;;;;;;;23.45;8.18;;;;;;;;;;5031027;28;20041;-65
2022/05/15 08:28:28;;;;;;;21.38;8.75;;;;;;;;;;4982406;28;20056;-66
2022/05/15 08:30:59;;;;;;;20.15;8.02;;;;;;;;;;4991559;28;20050;-66
2022/05/15 08:33:30;;;;;;;26.83;10.25;;;;;;;;;;4992202;28;20105;-66
2022/05/15 08:36:02;;;;;;;20.92;8.77;;;;;;;;;;5011425;28;20437;-66
2022/05/15 08:38:33;;;;;;;31.58;9.63;;;;;;;;;;5011609;28;20077;-66
2022/05/15 08:41:13;;;;;;;23.80;8.00;;;;;;;;;;5011404;28;20046;-66
2022/05/15 08:43:55;;;;;;;20.63;7.93;;;;;;;;;;5011194;28;20058;-65
2022/05/15 08:46:29;;;;;;;24.60;7.68;;;;;;;;;;5011262;28;20537;-66
2022/05/15 08:49:15;;;;;;;21.65;7.63;;;;;;;;;;5011367;28;20066;-65
2022/05/15 08:52:13;;;;;;;38.08;7.07;;;;;;;;;;4978785;28;20064;-66
2022/05/15 08:55:06;;;;;;;20.95;7.15;;;;;;;;;;4991418;28;20046;-66
2022/05/15 08:58:03;;;;;;;21.33;7.93;;;;;;;;;;4991485;28;20065;-65
2022/05/15 09:00:41;;;;;;;26.65;7.50;;;;;;;;;;5010727;28;20061;-66
2022/05/15 09:03:18;;;;;;;19.80;7.38;;;;;;;;;;4997636;28;20059;-66
2022/05/15 09:05:49;;;;;;;19.85;7.25;;;;;;;;;;5010530;28;20054;-66
2022/05/15 09:09:06;;;;;;;20.50;6.60;;;;;;;;;;5025642;28;20061;-66
2022/05/15 09:11:55;;;;;;;21.92;6.57;;;;;;;;;;4991059;28;20054;-65
2022/05/15 09:15:07;;;;;;;22.50;7.53;;;;;;;;;;4991372;28;20054;-66
2022/05/15 09:17:40;;;;;;;27.48;7.32;;;;;;;;;;4913745;29;20052;-66
2022/05/15 09:20:14;;;;;;;23.00;7.47;;;;;;;;;;4913975;29;20056;-65
2022/05/15 09:23:02;;;;;;;21.85;7.47;;;;;;;;;;4898569;29;20467;-65
2022/05/15 09:25:35;;;;;;;25.08;7.25;;;;;;;;;;4914194;29;20075;-66
2022/05/15 09:28:12;;;;;;;23.15;6.45;;;;;;;;;;4913756;29;20056;-65
2022/05/15 09:30:46;;;;;;;33.75;7.47;;;;;;;;;;4908902;29;20056;-66
2022/05/15 09:33:30;;;;;;;37.67;7.30;;;;;;;;;;4856538;29;20093;-65
2022/05/15 09:36:28;;;;;;;26.60;6.68;;;;;;;;;;4857586;29;20053;-65
2022/05/15 09:39:14;;;;;;;;;;;;;;;;;;4858451;29;20068;-65
2022/05/15 09:44:47;;;;;;;23.52;7.65;;;;;;;;;;4875510;29;20556;-65
2022/05/15 09:47:32;;;;;;;19.10;7.35;;;;;;;;;;4894082;29;20052;-65
2022/05/15 09:50:03;;;;;;;18.80;7.93;;;;;;;;;;4894313;29;20071;-66
2022/05/15 09:52:40;;;;;;;20.42;8.00;;;;;;;;;;4958215;28;20086;-66
2022/05/15 09:55:20;;;;;;;17.75;7.28;;;;;;;;;;4979736;28;20047;-65
2022/05/15 09:57:58;;;;;;;17.50;7.60;;;;;;;;;;5009643;28;20575;-66
2022/05/15 10:00:33;;;;;;;17.88;7.60;;;;;;;;;;5009765;28;20166;-65
2022/05/15 10:03:26;;;;;;;15.85;7.25;;;;;;;;;;5009705;28;20090;-66
2022/05/15 10:06:06;;;;;;;13.88;6.18;;;;;;;;;;5021156;28;20064;-65
2022/05/15 10:08:37;;;;;;;15.27;6.97;;;;;;;;;;5029507;28;20060;-65
2022/05/15 10:11:17;;;;;;;14.98;6.55;;;;;;;;;;5052109;28;20059;-65
2022/05/15 10:13:53;;;;;;;16.92;6.80;;;;;;;;;;5069319;28;20057;-65
2022/05/15 10:16:49;;;;;;;14.93;6.38;;;;;;;;;;5069387;28;20056;-65
2022/05/15 10:19:41;;;;;;;18.10;7.43;;;;;;;;;;5006337;28;20052;-66
2022/05/15 10:22:58;;;;;;;15.70;6.55;;;;;;;;;;5029049;28;20057;-65
2022/05/15 10:26:12;;;;;;;16.05;6.82;;;;;;;;;;4985895;28;20058;-65
2022/05/15 10:28:59;;;;;;;12.75;6.32;;;;;;;;;;4969929;28;20058;-66
2022/05/15 10:31:58;;;;;;;14.85;7.28;;;;;;;;;;4936434;28;20065;-66
2022/05/15 10:34:31;;;;;;;11.32;5.72;;;;;;;;;;4912466;29;20064;-65
2022/05/15 10:37:13;;;;;;;13.80;7.43;;;;;;;;;;4881707;29;20052;-65
2022/05/15 10:40:03;;;;;;;22.02;9.90;;;;;;;;;;4896998;29;20052;-65
2022/05/15 10:43:02;;;;;;;17.13;8.35;;;;;;;;;;4912345;29;20052;-65
2022/05/15 10:45:53;;;;;;;16.88;8.52;;;;;;;;;;4912004;29;20060;-66
2022/05/15 10:48:48;;;;;;;17.20;8.07;;;;;;;;;;4908853;29;20064;-66
2022/05/15 10:51:44;;;;;;;18.02;8.50;;;;;;;;;;4893921;29;20060;-65
2022/05/15 10:58:27;;;;;;;15.35;7.38;;;;;;;;;;5068354;28;20423;-66
2022/05/15 11:00:58;;;;;;;15.93;6.93;;;;;;;;;;5068234;28;20037;-66
2022/05/15 11:03:57;;;;;;;13.48;6.50;;;;;;;;;;5068248;28;20095;-66
2022/05/15 11:06:58;;;;;;;11.45;5.65;;;;;;;;;;5068201;28;20507;-66
2022/05/15 11:10:09;;;;;;;13.13;6.72;;;;;;;;;;5068235;28;20043;-66
2022/05/15 11:13:14;;;;;;;13.18;6.55;;;;;;;;;;5067813;28;20044;-66
2022/05/15 11:15:58;;;;;;;15.25;6.22;;;;;;;;;;5065443;28;20052;-66
2022/05/15 11:18:40;;;;;;;13.27;6.32;;;;;;;;;;5067642;28;20041;-66
2022/05/15 11:21:19;;;;;;;12.65;6.25;;;;;;;;;;5065719;28;20127;-66
2022/05/15 11:24:09;;;;;;;;;;;;;;;;;;5068263;28;20040;-66
2022/05/15 11:26:47;;;;;;;12.35;5.60;;;;;;;;;;5085170;28;19920;-66
2022/05/15 11:29:20;;;;;;;11.73;5.45;;;;;;;;;;5084979;28;20048;-66
2022/05/15 11:31:56;;;;;;;10.85;5.43;;;;;;;;;;5085578;28;20060;-66
2022/05/15 11:35:10;;;;;;;11.30;5.15;;;;;;;;;;5085323;28;20072;-66
2022/05/15 11:37:58;;;;;;;8.93;4.63;;;;;;;;;;5085331;28;20068;-66
2022/05/15 11:40:42;;;;;;;11.50;5.40;;;;;;;;;;5064884;28;20409;-66
2022/05/15 11:43:29;;;;;;;9.55;5.03;;;;;;;;;;5064961;28;20052;-66
2022/05/15 11:46:02;;;;;;;10.00;4.50;;;;;;;;;;5044367;28;20516;-66
2022/05/15 11:48:44;;;;;;;9.82;5.20;;;;;;;;;;5044908;28;20049;-66
2022/05/15 11:51:16;;;;;;;8.45;4.25;;;;;;;;;;5044250;28;20524;-66
2022/05/15 11:54:17;;;;;;;10.20;5.20;;;;;;;;;;5011700;28;20135;-66
2022/05/15 11:56:48;;;;;;;9.10;4.93;;;;;;;;;;5004529;28;20054;-66
2022/05/15 11:59:55;;;;;;;9.52;4.70;;;;;;;;;;5005025;28;20058;-66
2022/05/15 12:02:29;;;;;;;7.95;4.22;;;;;;;;;;4949561;28;20047;-66
2022/05/15 12:05:21;;;;;;;8.07;4.43;;;;;;;;;;4920423;29;20062;-66
2022/05/15 12:07:56;;;;;;;8.07;4.35;;;;;;;;;;4926697;29;20055;-66
2022/05/15 12:10:35;;;;;;;9.13;4.18;;;;;;;;;;4937904;28;20067;-67
2022/05/15 12:13:08;;;;;;;8.75;4.30;;;;;;;;;;4952333;28;20055;-67
2022/05/15 12:15:43;;;;;;;8.30;4.35;;;;;;;;;;4934683;29;20520;-67
2022/05/15 12:18:39;;;;;;;8.10;3.70;;;;;;;;;;4937349;29;20054;-66
2022/05/15 12:21:13;;;;;;;10.30;4.72;;;;;;;;;;4953070;29;20443;-66
2022/05/15 12:26:56;;;;;;;7.45;3.92;;;;;;;;;;4958988;28;20527;-67
2022/05/15 12:29:40;;;;;;;6.03;3.28;;;;;;;;;;4971471;28;20063;-67
2022/05/15 12:32:19;;;;;;;6.38;3.10;;;;;;;;;;4941219;28;20043;-67
2022/05/15 12:34:51;;;;;;;6.10;3.30;;;;;;;;;;4970789;28;20566;-66
2022/05/15 12:37:26;;;;;;;6.00;2.70;;;;;;;;;;4933330;29;20048;-67
2022/05/15 12:40:01;;;;;;;5.25;3.03;;;;;;;;;;4941096;28;20058;-67
2022/05/15 12:42:42;;;;;;;5.85;2.40;;;;;;;;;;4955210;28;20529;-67
2022/05/15 12:45:20;;;;;;;4.32;2.30;;;;;;;;;;4906728;29;20948;-69
2022/05/15 12:48:09;;;;;;;15.65;2.70;;;;;;;;;;4931679;29;20059;-67
2022/05/15 12:51:03;;;;;;;5.25;2.30;;;;;;;;;;4877523;29;20243;-67
2022/05/15 12:53:47;;;;;;;3.92;2.05;;;;;;;;;;4910382;29;20104;-67
2022/05/15 12:56:27;;;;;;;3.83;1.90;;;;;;;;;;4913818;29;20056;-67
2022/05/15 12:59:13;;;;;;;3.92;1.80;;;;;;;;;;4913760;29;20059;-69
2022/05/15 13:01:45;;;;;;;4.10;2.13;;;;;;;;;;4932475;29;20059;-67
2022/05/15 13:04:19;;;;;;;4.07;1.90;;;;;;;;;;4932993;29;20060;-67
2022/05/15 13:06:54;;;;;;;3.85;2.20;;;;;;;;;;4879324;29;20052;-68
2022/05/15 13:09:29;;;;;;;5.03;2.30;;;;;;;;;;4879367;29;20547;-68
2022/05/15 13:12:03;;;;;;;4.47;2.10;;;;;;;;;;4869887;29;20488;-68
2022/05/15 13:14:46;;;;;;;3.90;1.90;;;;;;;;;;4888229;29;20055;-68
2022/05/15 13:17:32;;;;;;;3.15;1.63;;;;;;;;;;4932636;29;20539;-69
2022/05/15 13:20:15;;;;;;;4.07;1.90;;;;;;;;;;4900224;29;20048;-68
2022/05/15 13:22:47;;;;;;;3.90;1.90;;;;;;;;;;4875698;29;20063;-69
2022/05/15 13:25:27;;;;;;;4.35;2.05;;;;;;;;;;4894505;29;20064;-68
2022/05/15 13:27:58;;;;;;;3.15;1.77;;;;;;;;;;4893622;29;20064;-69
2022/05/15 13:30:33;;;;;;;3.20;1.90;;;;;;;;;;4898272;29;20052;-68
2022/05/15 13:33:28;;;;;;;4.57;1.67;;;;;;;;;;4893316;29;20075;-68
2022/05/15 13:36:02;;;;;;;3.15;1.55;;;;;;;;;;4913813;29;20064;-68
2022/05/15 13:44:20;;;;;;;3.08;1.77;;;;;;;;;;4888204;29;20462;-69
2022/05/15 13:47:07;;;;;;;5.82;2.00;;;;;;;;;;4894296;29;20067;-69
2022/05/15 13:49:42;;;;;;;2.97;1.70;;;;;;;;;;4894425;29;20060;-67
2022/05/15 13:52:22;;;;;;;3.28;1.80;;;;;;;;;;4893974;29;20063;-68
2022/05/15 13:54:56;;;;;;;4.75;2.20;;;;;;;;;;4847933;29;20060;-69
2022/05/15 13:57:29;;;;;;;2.88;1.70;;;;;;;;;;4893701;29;20064;-68
2022/05/15 14:00:11;;;;;;;2.70;1.52;;;;;;;;;;4913747;29;20059;-68
2022/05/15 14:03:03;;;;;;;2.78;1.80;;;;;;;;;;4950888;29;20796;-69
2022/05/15 14:05:38;;;;;;;3.28;1.40;;;;;;;;;;4949720;28;20047;-68
2022/05/15 14:08:21;;;;;;;2.67;1.27;;;;;;;;;;4947705;28;20059;-68
2022/05/15 14:11:05;;;;;;;2.30;1.20;;;;;;;;;;4948979;28;20062;-68
2022/05/15 14:13:50;;;;;;;2.72;1.73;;;;;;;;;;4988096;28;20054;-67
2022/05/15 14:16:24;;;;;;;2.13;1.20;;;;;;;;;;4975732;28;20058;-68
2022/05/15 14:18:54;;;;;;;3.63;1.50;;;;;;;;;;4967885;28;20065;-66
2022/05/15 14:21:27;;;;;;;2.75;1.45;;;;;;;;;;4968606;28;20055;-67
2022/05/15 14:23:57;;;;;;;2.25;1.40;;;;;;;;;;4967837;28;20055;-67
2022/05/15 14:26:28;;;;;;;3.40;1.40;;;;;;;;;;4968987;28;20078;-66
2022/05/15 14:29:00;;;;;;;4.68;1.40;;;;;;;;;;4955860;28;20065;-68
2022/05/15 14:31:39;;;;;;;2.35;1.33;;;;;;;;;;4955950;28;20514;-67
2022/05/15 14:34:10;;;;;;;2.70;1.48;;;;;;;;;;4988595;28;20062;-68
2022/05/15 14:36:41;;;;;;;2.83;1.30;;;;;;;;;;4987527;28;20058;-67
2022/05/15 14:39:12;;;;;;;2.70;1.23;;;;;;;;;;4988382;28;20046;-67
2022/05/15 14:41:43;;;;;;;2.22;1.35;;;;;;;;;;4987750;28;20652;-67
2022/05/15 14:44:13;;;;;;;2.15;1.10;;;;;;;;;;4971137;28;20490;-68
2022/05/15 14:46:45;;;;;;;2.28;1.20;;;;;;;;;;4988029;28;20063;-68
2022/05/15 14:49:16;;;;;;;1.83;0.90;;;;;;;;;;4988343;28;20058;-69
2022/05/15 14:51:55;;;;;;;;;;;;;;;;;;4995356;28;20398;-67
2022/05/15 14:54:25;;;;;;;1.77;1.02;;;;;;;;;;4992096;28;20318;-67
2022/05/15 14:57:01;;;;;;;1.73;0.90;;;;;;;;;;5021199;28;20768;-67
2022/05/15 14:59:36;;;;;;;1.85;0.90;;;;;;;;;;5028077;28;20510;-68
2022/05/15 15:02:08;;;;;;;2.83;1.10;;;;;;;;;;5028155;28;20057;-67
2022/05/15 15:04:41;;;;;;;2.13;1.40;;;;;;;;;;4994945;28;20532;-67
2022/05/15 15:07:13;;;;;;;2.17;1.02;;;;;;;;;;5028164;28;20064;-68
2022/05/15 15:09:43;;;;;;;2.40;1.02;;;;;;;;;;5028888;28;20312;-68
2022/05/15 15:12:13;;;;;;;1.75;1.00;;;;;;;;;;5027028;28;20057;-68
2022/05/15 15:14:44;;;;;;;1.75;0.93;;;;;;;;;;4992717;28;20050;-69
2022/05/15 15:17:15;;;;;;;2.13;1.00;;;;;;;;;;5027848;28;20057;-70
2022/05/15 15:19:46;;;;;;;2.08;1.10;;;;;;;;;;5001859;28;20062;-69
2022/05/15 15:22:16;;;;;;;5.47;2.53;;;;;;;;;;4998726;28;20054;-69
2022/05/15 15:24:47;;;;;;;1.92;1.00;;;;;;;;;;5011610;28;20421;-70
2022/05/15 15:27:18;;;;;;;6.30;3.28;;;;;;;;;;5028062;28;20057;-71
2022/05/15 15:29:49;;;;;;;5.15;2.20;;;;;;;;;;5011858;28;20457;-69
2022/05/15 15:32:19;;;;;;;5.97;2.03;;;;;;;;;;5028227;28;20050;-69
2022/05/15 15:34:50;;;;;;;3.35;1.67;;;;;;;;;;4988393;28;20063;-70
2022/05/15 15:40:12;;;;;;;6.30;3.60;;;;;;;;;;4968779;28;20547;-69
2022/05/15 15:42:44;;;;;;;3.78;1.92;;;;;;;;;;4969414;28;20066;-69
2022/05/15 15:45:15;;;;;;;2.95;1.65;;;;;;;;;;4972567;28;20066;-68
2022/05/15 15:47:48;;;;;;;;;;;;;;;;;;4973194;28;20055;-69
2022/05/15 15:50:19;;;;;;;1.98;1.10;;;;;;;;;;4955918;28;19922;-70
2022/05/15 15:52:49;;;;;;;4.18;2.10;;;;;;;;;;4982098;28;20054;-67
2022/05/15 15:55:20;;;;;;;5.85;3.65;;;;;;;;;;4988509;28;20053;-69
2022/05/15 15:57:51;;;;;;;2.05;1.17;;;;;;;;;;4942003;28;20057;-69
2022/05/15 16:00:24;;;;;;;3.42;1.35;;;;;;;;;;4990752;28;20066;-69